Flight Track Log - Related Links

Times and Time Zones

All times are in EDT time to prevent confusion due to time zone crossing. See the EJA583 flight status page for this flight to view local times or setup timezone preferences in your user account.


Time Position Orientation Groundspeed Altitude Reporting Facility
EDT Latitude Longitude Course Direction KTS MPH feet Rate Location/Type
Wed 11:22:47 AM 45.6025 -122.6383 305° West 188 216 2,300  Level Seattle Center
Wed 11:23:48 AM 45.6319 -122.7208 297° West 220 253 5,500 3,590 Climbing Seattle Center
Wed 11:24:49 AM 45.6408 -122.8394 276° West 263 303 9,600 3,148 Climbing Seattle Center
Wed 11:25:50 AM 45.5719 -122.8392 180° South 279 321 11,900 2,361 Climbing Seattle Center
Wed 11:26:51 AM 45.5022 -122.7733 146° Southeast 301 346 14,400 2,262 Climbing Seattle Center
Wed 11:27:52 AM 45.4119 -122.7456 168° South 337 388 16,500 2,000 Climbing Seattle Center
Wed 11:28:54 AM 45.3183 -122.7364 176° South 340 391 18,500 2,146 Climbing Seattle Center
Wed 11:29:55 AM 45.2203 -122.7261 176° South 349 402 20,900 2,311 Climbing Seattle Center
Wed 11:30:56 AM 45.1206 -122.7153 176° South 357 411 23,200 2,311 Climbing Seattle Center
Wed 11:31:57 AM 45.0214 -122.7053 176° South 356 410 25,600 2,262 Climbing Seattle Center
Wed 11:32:58 AM 44.9275 -122.7261 189° South 343 395 27,800 1,967 Climbing Seattle Center
Wed 11:33:59 AM 44.8367 -122.7550 193° South 335 386 29,600 1,623 Climbing Seattle Center
Wed 11:35:00 AM 44.7428 -122.7869 194° South 343 395 31,100 1,574 Climbing Seattle Center
Wed 11:36:01 AM 44.6486 -122.8206 194° South 348 400 32,800 1,574 Climbing Seattle Center
Wed 11:37:02 AM 44.5533 -122.8553 195° South 350 403 34,300 1,475 Climbing Seattle Center
Wed 11:38:03 AM 44.4592 -122.8903 195° South 349 402 35,800 1,317 Climbing Seattle Center
Wed 11:39:05 AM 44.3461 -122.9119 188° South 351 404 37,000 585 Climbing Seattle Center
Wed 11:40:06 AM 44.2422 -122.8944 173° South 378 435 37,000  Level Seattle Center
Wed 11:41:07 AM 44.1311 -122.8758 173° South 393 452 37,000  Level Seattle Center
Wed 11:42:08 AM 44.0217 -122.8581 173° South 394 453 37,000  Level Seattle Center
Wed 11:43:09 AM 43.9139 -122.8400 173° South 391 450 37,000  Level Seattle Center
Wed 11:44:10 AM 43.8058 -122.8225 173° South 389 448 37,000  Level Seattle Center
Wed 11:45:11 AM 43.7000 -122.8036 173° South 385 443 37,000  Level Seattle Center
Wed 11:46:12 AM 43.5928 -122.7853 173° South 386 444 37,000  Level Seattle Center
Wed 11:47:14 AM 43.4875 -122.7678 173° South 383 441 37,000  Level Seattle Center
Wed 11:48:15 AM 43.3819 -122.7517 174° South 381 438 37,000  Level Seattle Center
Wed 11:49:16 AM 43.2769 -122.7336 173° South 380 437 37,000  Level Seattle Center
Wed 11:50:17 AM 43.1514 -122.6994 169° South 382 440 37,000  Level Seattle Center
Wed 11:51:18 AM 43.0481 -122.6672 167° South 382 440 37,000  Level Seattle Center
Wed 11:52:19 AM 42.9456 -122.6350 167° South 380 437 37,000  Level Seattle Center
Wed 11:53:20 AM 42.8417 -122.6042 168° South 381 438 37,000  Level Seattle Center
Wed 11:54:21 AM 42.7378 -122.5739 168° South 381 438 37,000  Level Seattle Center
Wed 11:55:22 AM 42.6358 -122.5450 168° South 380 437 37,000  Level Seattle Center
Wed 11:56:24 AM 42.5342 -122.5139 167° South 377 434 37,000  Level Seattle Center
Wed 11:57:25 AM 42.4322 -122.4844 168° South 376 433 37,000  Level Seattle Center
Wed 11:58:26 AM 42.3303 -122.4556 168° South 376 433 37,000  Level Seattle Center
Wed 11:59:27 AM 42.2286 -122.4267 168° South 376 433 37,000  Level Seattle Center
Wed 12:00:28 PM 42.1069 -122.3933 169° South 376 433 37,000  Level Seattle Center
Wed 12:01:29 PM 42.0053 -122.3639 168° South 376 433 37,000  Level Seattle Center
Wed 12:02:31 PM 41.9044 -122.3350 168° South 375 432 37,000  Level Seattle Center
Wed 12:03:32 PM 41.8028 -122.3072 168° South 376 433 37,000  Level Seattle Center
Wed 12:04:33 PM 41.7006 -122.2781 168° South 378 435 37,000  Level Seattle Center
Wed 12:05:34 PM 41.5983 -122.2494 168° South 378 435 37,000  Level Seattle Center
Wed 12:06:35 PM 41.4972 -122.2211 168° South 375 432 37,000  Level Seattle Center
Wed 12:07:36 PM 41.3847 -122.1900 168° South 373 429 37,000  Level Seattle Center
Wed 12:08:37 PM 41.2836 -122.1611 168° South 372 428 37,000  Level Seattle Center
Wed 12:09:38 PM 41.1744 -122.1308 168° South 371 427 37,000  Level Seattle Center
Wed 12:10:39 PM 41.0825 -122.1042 168° South 371 427 37,000  Level Seattle Center
Wed 12:11:40 PM 40.9814 -122.0767 168° South 371 427 37,000  Level Seattle Center
Wed 12:12:42 PM 40.8800 -122.0478 168° South 372 428 37,000  Level Seattle Center
Wed 12:13:43 PM 40.7792 -122.0203 168° South 370 426 37,000  Level Seattle Center
Wed 12:14:44 PM 40.6597 -121.9878 168° South 366 421 37,000 -639 Level Seattle Center
Wed 12:15:45 PM 40.5606 -121.9608 168° South 364 419 35,700 -1,525 Descending Seattle Center
Wed 12:16:46 PM 40.4669 -121.9344 168° South 347 399 33,900 -1,820 Descending Seattle Center
Wed 12:17:47 PM 40.3697 -121.9078 168° South 352 405 32,000 -1,820 Descending Seattle Center
Wed 12:18:48 PM 40.2631 -121.8789 168° South 383 441 30,200 -1,820 Descending Seattle Center
Wed 12:19:49 PM 40.1511 -121.8481 168° South 405 466 28,300 -2,164 Descending Seattle Center
Wed 12:20:50 PM 40.0375 -121.8192 169° South 412 474 25,800 -2,384 Descending Seattle Center
Wed 12:22:20 PM 39.8814 -121.7744 168° South 407 468 22,300 -2,368 Descending Oakland Center
Wed 12:23:22 PM 39.7744 -121.7458 168° South 394 453 19,800 -2,634 Descending Oakland Center
Wed 12:24:23 PM 39.6522 -121.7136 169° South 375 432 16,900 -2,683 Descending Oakland Center
Wed 12:25:25 PM 39.5525 -121.6869 168° South 366 421 14,300 -2,419 Descending Oakland Center
Wed 12:26:27 PM 39.4586 -121.6617 168° South 355 409 11,900 -2,390 Descending Oakland Center
Wed 12:27:28 PM 39.3753 -121.6406 169° South 306 352 9,400 -2,557 Descending Oakland Center
Wed 12:28:29 PM 39.3000 -121.6208 169° South 280 322 6,700 -2,683 Descending Oakland Center
Wed 12:29:31 PM 39.2278 -121.6017 168° South 267 307 3,900 -2,293 Descending Oakland Center
Wed 12:30:32 PM 39.1611 -121.5867 170° South 260 299 2,000 -1,869 Descending Oakland Center

Login

Don't have an account? Register now (free) for customized features, flight alerts, and more!